Meteo4 di Emilio Bellavite Il primo osservatorio Meteo di Verona  
 
giovedì 21 marzo 2019
 
 
dati in tempo reale
Di seguito i dati in tempo reale delle stazioni on line della rete di Meteo4. Cliccando sul link della stazione, ove presente, si accederà al sito web personale.
Stazioni online
Località Giorno Ora Temp. Umid. Relat. Dew Point Press. Atm. Velocità Vento Direz. Vento Precip. Temp.
Min
Temp.
Max
Abano (PD) 21/03/19 12.10 15.1 °C 36 % 0.1 °C 1032.9 hPa 6.4 Km/h ENE 0.0 mm  3.2 °C 15.2 °C
Acquapendente (VT) 21/03/19 12.18 16.6 °C 40 % 2.9 °C 1026.5 hPa 24.5 Km/h NE 0.0 mm  5.6 °C 16.9 °C
Acquaviva delle Fonti (BA) 21/03/19 12.18 13.9 °C 72 % 8.9 °C 1025.9 hPa 11.1 Km/h NE 0.0 mm  5.8 °C 13.9 °C
Ala (TN) 21/03/19 12.18 13.2 °C 34 % -2.3 °C 1031.6 hPa 1.5 Km/h W 0.0 mm  2.4 °C 14.2 °C
Alleghe (BL) 21/03/19 12.18 10.6 °C 33 % -5.0 °C 1014.3 hPa 7.2 Km/h E 0.0 mm  -2.1 °C 10.7 °C
Alleghe Lago (BL) 21/03/19 12.18 8.9 °C 33 % -6.5 °C 1028.0 hPa 14.1 Km/h SSW 0.0 mm  -2.1 °C 8.9 °C
Ancona (AN) 21/03/19 12.10 11.8 °C 75 % 7.5 °C 1031.8 hPa 8.0 Km/h W 0.0 mm  3.1 °C 11.8 °C
Ancona loc. Brecce Bianche (AN) 21/03/19 12.15 11.8 °C 66 % 5.7 °C 1031.9 hPa 10.1 Km/h NW 0.0 mm  3.2 °C 11.8 °C
Arenzano (GE) 21/03/19 12.18 13.3 °C 35 % -1.9 °C 1029.5 hPa 48.3 Km/h NW 0.0 mm  8.7 °C 13.3 °C
Arquà Polesine (RO) 21/03/19 12.15 14.2 °C 40 % 0.8 °C 1033.9 hPa 3.2 Km/h NE 0.0 mm  1.8 °C 14.3 °C
Arzignano loc. Castello (VI) 21/03/19 12.00 14.7 °C 38 % 0.5 °C 1031.4 hPa 0.4 Km/h NNW 0.0 mm  4.0 °C 15.1 °C
Arzignano Pugnello (VI) 21/03/19 12.14 13.6 °C 41 % 0.6 °C 1030.7 hPa 3.2 Km/h ESE 0.0 mm  4.8 °C 13.6 °C
Arzignano Tezze (VI) 21/03/19 12.09 15.2 °C 36 % 0.2 °C 1032.1 hPa 0.0 Km/h NNW 0.0 mm  -0.1 °C 15.4 °C
Asiago Rifugio Val Formica (VI) 21/03/19 12.18 5.8 °C 47 % -4.6 °C 1035.1 hPa 4.1 Km/h S 0.0 mm  -7.7 °C 5.9 °C
Avio (TN) 21/03/19 12.18 15.6 °C 30 % -1.9 °C 1031.3 hPa 3.0 Km/h N 0.0 mm  4.3 °C 15.6 °C
Badia Calavena loc. San Valentino (VR) 21/03/19 12.18 10.0 °C 44 % -1.7 °C 1030.8 hPa 12.9 Km/h S 0.0 mm  2.1 °C 10.0 °C
Balbido (TN) 21/03/19 12.15 11.1 °C 40 % -2.0 °C 1030.2 hPa 4.5 Km/h NE 0.0 mm  -0.5 °C 11.1 °C
Barbara (AN) 21/03/19 12.18 10.9 °C 63 % 4.1 °C 1033.8 hPa 32.4 Km/h NNW 0.0 mm  5.3 °C 11.2 °C
Barcellona P.G. Centro (ME) 21/03/19 12.18 19.7 °C 44 % 7.1 °C 1019.8 hPa 25.7 Km/h E 0.0 mm  13.3 °C 19.7 °C
Barcellona Pozzo di Gotto (ME) 21/03/19 12.19 20.1 °C 43 % 7.1 °C 1019.9 hPa 11.3 Km/h ESE 0.0 mm  13.6 °C 20.2 °C
Bardolino (VR) 21/03/19 12.14 11.7 °C 41 % -1.1 °C 1025.4 hPa 12.9 Km/h WSW 0.0 mm  5.6 °C 11.7 °C
Beccacivetta (VR) 21/03/19 12.09 14.4 °C 31 % -2.5 °C 1032.4 hPa 8.0 Km/h ESE 0.0 mm  3.1 °C 14.5 °C
Bellaria Igea Marina (RN) 21/03/19 12.18 11.6 °C 54 % 2.6 °C 1032.0 hPa 11.3 Km/h NNW 0.0 mm  4.2 °C 12.3 °C
Bellaria Igea Marina2 (RN) 21/03/19 12.18 11.7 °C 54 % 2.7 °C 1031.7 hPa 14.5 Km/h N 0.0 mm  4.3 °C 12.5 °C
Belluno Castion (BL) 21/03/19 12.00 10.8 °C 44 % -1.0 °C 1032.3 hPa 0.0 Km/h SW 0.0 mm  -1.8 °C 10.9 °C
Bernate Ticino fraz. Casate (MI) 21/03/19 12.15 13.2 °C 41 % 0.2 °C 1030.1 hPa 0.0 Km/h N 0.0 mm  1.6 °C 13.4 °C
Besenello (TN) 21/03/19 12.14 12.2 °C 35 % -2.8 °C 1032.7 hPa 3.2 Km/h SSW 0.0 mm  0.2 °C 12.3 °C
Besozzo (VA) 21/03/19 12.14 14.0 °C 38 % -0.1 °C 1033.1 hPa 6.4 Km/h WNW 0.0 mm  -1.8 °C 14.0 °C
Bientina (PI) 21/03/19 12.15 17.2 °C 31 % -0.1 °C 1026.1 hPa 7.2 Km/h E 0.0 mm  8.4 °C 17.4 °C
Bisignano (CS) 21/03/19 12.14 15.4 °C 57 % 6.9 °C 1022.3 hPa 23.4 Km/h WNW 0.0 mm  9.5 °C 15.4 °C
Bitti (NU) 21/03/19 12.15 10.5 °C 66 % 4.4 °C 1046.7 hPa 12.2 Km/h E 0.0 mm  5.9 °C 10.6 °C
Bolognano di Arco (TN) 21/03/19 12.18 14.1 °C 37 % -0.4 °C 1032.6 hPa 14.5 Km/h SW 0.0 mm  1.8 °C 14.1 °C
Bonorva (SS) 21/03/19 12.15 13.3 °C 60 % 5.7 °C 1023.0 hPa 4.8 Km/h N 0.0 mm  5.4 °C 13.3 °C
Borgo Valsugana (TN) 21/03/19 12.09 12.8 °C 32 % -3.5 °C 1030.0 hPa 4.7 Km/h NW 0.0 mm  -0.5 °C 12.8 °C
Bosco Chiesanuova ARPAV (VR) 21/03/19 12.00 6.9 °C 43 % -4.8 °C  hPa 7.9 Km/h SSW 0.0 mm  -0.4 °C 6.9 °C
Brebbia (VA) 21/03/19 10.30 10.4 °C 46 % -0.7 °C 1035.2 hPa 3.2 Km/h SSW 0.0 mm  -1.3 °C 10.4 °C
Brendola (VI) 21/03/19 12.15 16.4 °C 0 % 0.0 °C 1018.0 hPa 1.1 Km/h SW 0.0 mm  2.5 °C 16.5 °C
Bresega (PD) 21/03/19 12.15 14.5 °C 42 % 1.7 °C 1031.8 hPa 4.2 Km/h NE 0.0 mm  4.1 °C 14.5 °C
Brognoligo (VR) 21/03/19 12.09 15.6 °C 29 % -2.4 °C 1029.3 hPa 6.1 Km/h E 0.0 mm  3.1 °C 15.6 °C
Brolo c/da Parrazzà (ME) 21/03/19 12.15 18.7 °C 47 % 7.1 °C 1018.5 hPa 10.0 Km/h SSW 1.0 mm  13.0 °C 18.7 °C
Brugine2 (PD) 21/03/19 12.13 13.7 °C 47 % 2.6 °C 1032.8 hPa 3.7 Km/h E 0.0 mm  1.2 °C 13.9 °C
Buccheri (SR) 21/03/19 11.23 7.8 °C 99 % 7.7 °C 1019.7 hPa 39.7 Km/h ESE 1.7 mm  6.7 °C 7.9 °C
Budoia (PN) 21/03/19 12.15 14.4 °C 35 % -0.8 °C 1032.6 hPa 8.0 Km/h ESE 0.0 mm  2.7 °C 14.4 °C
Ca' Gallo (PU) 21/03/19 12.10 12.0 °C 60 % 4.5 °C 1027.0 hPa 20.1 Km/h NNE 0.0 mm  1.7 °C 12.0 °C
Calcinato (BS) 21/03/19 12.18 13.7 °C 38 % -0.3 °C 1035.3 hPa 6.4 Km/h SW 0.0 mm  3.6 °C 13.7 °C
Calliano (TN) 21/03/19 12.18 12.6 °C 38 % -1.3 °C 1031.7 hPa 4.8 Km/h NNE 0.0 mm  0.3 °C 12.6 °C
Calmasino ARPAV (VR) 21/03/19 12.00 11.9 °C 32 % -4.3 °C 1032.8 hPa 7.2 Km/h WSW 0.0 mm  4.5 °C 11.9 °C
Caltabellotta (AG) 21/03/19 12.05 11.7 °C 72 % 6.8 °C 1017.4 hPa 8.0 Km/h N 0.2 mm  9.8 °C 12.1 °C
Cammarata (AG) 21/03/19 12.15 11.8 °C 70 % 6.5 °C 1019.9 hPa 17.3 Km/h ENE 0.3 mm  8.3 °C 11.8 °C
Campoformido (UD) 21/03/19 12.18 14.6 °C 36 % -0.4 °C 1032.2 hPa 8.0 Km/h E 0.0 mm  3.3 °C 14.4 °C
Capodimonte (VT) 21/03/19 12.15 14.1 °C 59 % 6.2 °C 1027.5 hPa 8.3 Km/h NE 0.0 mm  7.4 °C 14.2 °C
Caprarola Centro Storico (VT) 21/03/19 12.18 16.2 °C 37 % 1.5 °C 1026.0 hPa 7.2 Km/h SSE 0.0 mm  5.9 °C 16.2 °C
Carceri (PD) 21/03/19 12.00 12.9 °C 39 % -1.1 °C 1031.7 hPa 4.8 Km/h N 0.0 mm  6.7 °C 12.9 °C
Carezza (BZ) 21/03/19 12.09 8.1 °C 31 % -8.0 °C 1022.6 hPa 1.1 Km/h SW 0.0 mm  -8.5 °C 8.1 °C
Carmignano loc. Seano (PO) 21/03/19 12.18 15.2 °C 37 % 0.6 °C 1029.4 hPa 22.4 Km/h NNW 0.0 mm  8.8 °C 15.3 °C
Carpi (MO) 21/03/19 12.15 14.2 °C 36 % -0.7 °C 1032.2 hPa 8.5 Km/h NNE 0.0 mm  0.5 °C 14.4 °C
Cartigliano (VI) 21/03/19 12.18 14.8 °C 26 % -4.6 °C 1031.6 hPa 7.0 Km/h N 0.0 mm  3.1 °C 15.3 °C
Casotto (VI) 21/03/19 12.14 13.7 °C 35 % -1.5 °C 1030.5 hPa 8.0 Km/h NNW 0.0 mm  0.2 °C 13.7 °C
Cassano Magnago (VA) 21/03/19 12.09 13.6 °C 37 % -0.8 °C 1032.7 hPa 1.6 Km/h W 0.0 mm  1.9 °C 13.6 °C
Castelferro (AL) 21/03/19 12.18 11.9 °C 45 % 0.3 °C 1033.3 hPa 6.4 Km/h N 0.0 mm  2.8 °C 11.9 °C
Castelfranco Veneto (TV) 21/03/19 12.10 14.1 °C 35 % -1.2 °C 1033.8 hPa 1.3 Km/h E 0.0 mm  2.6 °C 14.1 °C
Castelgomberto (VI) 20/03/19 03.41 4.4 °C 73 % 0.0 °C 1027.6 hPa 7.2 Km/h NW 0.0 mm  4.3 °C 6.8 °C
Castelnuovo V.C. (PI) 21/03/19 12.10 12.2 °C 51 % 2.4 °C 1027.5 hPa 7.8 Km/h N 0.0 mm  2.5 °C 12.2 °C
Castiglione del Lago (PG) 21/03/19 12.10 15.1 °C 52 % 5.3 °C 1029.6 hPa 16.1 Km/h N 0.0 mm  7.3 °C 15.2 °C
Castiglione della Pescaia (GR) 21/03/19 12.18 19.3 °C 41 % 5.7 °C 1027.1 hPa 24.5 Km/h NNE 0.0 mm  9.0 °C 19.4 °C
Castiglione della Pescaia Vaticino (GR) 21/03/19 12.15 17.9 °C 40 % 4.1 °C 1015.6 hPa 16.2 Km/h N 0.0 mm  8.0 °C 17.9 °C
Cavaria con Premezzo (VA) 21/03/19 12.14 12.4 °C 39 % -1.2 °C 1032.5 hPa 0.9 Km/h E 0.0 mm  1.1 °C 12.6 °C
Cavazzale (VI) 19/03/19 21.35 8.5 °C 63 % 1.9 °C 1026.5 hPa 0.0 Km/h --- 0.0 mm  3.7 °C 13.6 °C
Cefalù (PA) 21/03/19 12.18 16.2 °C 75 % 11.8 °C 1014.8 hPa 11.1 Km/h NE 1.0 mm  11.6 °C 16.2 °C
Cerea (VR) 21/03/19 07.40 6.6 °C 62 % -0.2 °C 1033.1 hPa 1.6 Km/h WNW 0.0 mm  3.6 °C 6.9 °C
Cerea2 (VR) 21/03/19 12.15 14.6 °C 26 % -4.7 °C 1033.7 hPa 16.0 Km/h ENE 0.0 mm  4.1 °C 14.8 °C
Chieti (CH) 21/03/19 12.15 15.0 °C 48 % 4.1 °C 4.0 hPa 6.0 Km/h NNE 735.0 mm  4.3 °C 15.1 °C
Chiusi (SI) 21/03/19 12.05 13.7 °C 52 % 4.0 °C 1026.3 hPa 8.0 Km/h NNE 0.0 mm  5.7 °C 13.7 °C
Cima Grappa (TV) 21/03/19 12.19 2.8 °C 39 % -9.8 °C 1037.9 hPa 6.1 Km/h NE 0.0 mm  -4.3 °C 2.8 °C
Cismon del Grappa loc. Corlo (VI) 21/03/19 12.19 11.9 °C 39 % -1.6 °C 1032.0 hPa 3.9 Km/h SW 0.0 mm  -0.1 °C 11.9 °C
Civita Castellana (VT) 21/03/19 12.19 18.5 °C 37 % 3.5 °C 1025.3 hPa 15.9 Km/h NNE 0.0 mm  7.1 °C 18.6 °C
Codroipo (UD) 21/03/19 12.14 15.5 °C 27 % -3.4 °C 1030.7 hPa 11.0 Km/h N 0.0 mm  5.3 °C 15.5 °C
Cogollo del Cengio (VI) 21/03/19 12.14 13.0 °C 17 % -11.5 °C 1029.9 hPa 10.4 Km/h SE 0.0 mm  1.9 °C 13.0 °C
Colle del Piccolo San Bernardo La Thuile (AO) 21/03/19 12.14 -0.7 °C 63 % -6.9 °C 1035.4 hPa 4.3 Km/h ENE 0.0 mm  -8.8 °C -0.6 °C
Cologna Veneta Sant'Andrea (VR) 21/03/19 12.10 14.3 °C 39 % 0.6 °C 1032.5 hPa 6.4 Km/h E 0.0 mm  2.8 °C 14.4 °C
Colognola ai Colli (VR) 21/03/19 12.10 14.7 °C 36 % -0.3 °C 1032.2 hPa 11.3 Km/h N 0.0 mm  2.2 °C 14.7 °C
Contrada Dosso Gervasio (VR) 21/03/19 12.00 8.0 °C 50 % -1.8 °C 1032.7 hPa 0.0 Km/h S 0.0 mm  0.9 °C 8.1 °C
Cornedo Vicentino loc. Muzzolon (VI) 21/03/19 12.09 14.2 °C 33 % -1.8 °C 1030.0 hPa 6.9 Km/h SSE 0.0 mm  1.4 °C 14.8 °C
Corrubio di S. Anna d'Alfaedo (VR) 21/03/19 12.15 7.9 °C 48 % -2.4 °C 1034.8 hPa 6.4 Km/h SSE 0.0 mm  1.4 °C 7.9 °C
Cosseria Lidora (SV) 21/03/19 12.00 10.6 °C 43 % -1.5 °C 1031.9 hPa 11.3 Km/h WNW 0.0 mm  4.7 °C 10.8 °C
Costa di Vittorio Veneto (TV) 21/03/19 12.09 13.7 °C 35 % -1.5 °C 1031.0 hPa 3.2 Km/h W 0.0 mm  3.4 °C 13.8 °C
Costa Volpino (BG) 21/03/19 12.15 12.2 °C 33 % -3.6 °C 1029.2 hPa 7.9 Km/h SSW 0.0 mm  1.8 °C 12.3 °C
Dorno (PV) 21/03/19 12.19 12.4 °C 42 % -0.1 °C 1033.8 hPa 0.6 Km/h NE 0.0 mm  2.9 °C 12.7 °C
Dossobuono (VR) 21/03/19 12.18 14.1 °C 35 % -1.2 °C 1033.8 hPa 6.4 Km/h NE 0.0 mm  4.1 °C 14.2 °C
Erbezzo Passo Fittanze (VR) 21/03/19 12.08 5.8 °C 52 % -3.3 °C 1036.1 hPa 3.2 Km/h S 0.0 mm  -2.8 °C 5.8 °C
Esine (BS) 21/03/19 12.18 14.3 °C 41 % 1.1 °C 1031.3 hPa 6.5 Km/h SSW 0.0 mm  2.3 °C 14.2 °C
Falzè di Piave (TV) 21/03/19 12.15 14.7 °C 34 % -1.0 °C 1033.5 hPa 2.0 Km/h E 0.0 mm  -0.7 °C 14.8 °C
Farra di Soligo (TV) 21/03/19 12.16 13.9 °C 44 % 1.8 °C 1025.6 hPa 0.7 Km/h WNW 0.0 mm  1.1 °C 13.9 °C
Feltre Celarda (BL) 21/03/19 12.18 11.5 °C 40 % -1.7 °C 1031.0 hPa 1.9 Km/h ESE 0.0 mm  -3.1 °C 11.7 °C
Ferrara di M.B. (VR) 21/03/19 11.55 6.2 °C 45 % -4.9 °C 1029.7 hPa 4.8 Km/h S 0.0 mm  -3.2 °C 6.3 °C
Fiavè loc. Ballino (TN) 21/03/19 12.15 11.4 °C 51 % 1.7 °C 1032.7 hPa 6.7 Km/h S 0.0 mm  -0.5 °C 11.4 °C
Filo di Argenta (FE) 21/03/19 12.15 15.5 °C 43 % 3.0 °C 1032.8 hPa 8.3 Km/h WSW 0.0 mm  0.0 °C 15.5 °C
Fogliano Redipuglia (GO) 21/03/19 12.15 15.8 °C 22 % -5.9 °C 1032.2 hPa 6.5 Km/h NE 0.0 mm  6.0 °C 15.9 °C
Foligno (PG) 21/03/19 12.10 16.1 °C 43 % 3.5 °C 1026.9 hPa 17.7 Km/h ENE 0.0 mm  7.8 °C 16.2 °C
Fontanafredda (PN) 21/03/19 12.18 14.3 °C 42 % 1.6 °C 1032.0 hPa 1.3 Km/h ENE 0.0 mm  -0.6 °C 14.3 °C
Forchiade S. Tomaso Ag. (BL) 21/03/19 12.09 11.3 °C 37 % -2.9 °C 1025.6 hPa 4.8 Km/h W 0.0 mm  -2.5 °C 11.3 °C
Fumane Contrada La Ca (VR) 21/03/19 12.09 13.0 °C 32 % -3.3 °C 1032.7 hPa 4.8 Km/h SW 0.0 mm  2.8 °C 13.1 °C
Gaggiano (MI) 21/03/19 12.16 12.8 °C 40 % -0.5 °C 1033.0 hPa 3.5 Km/h WNW 0.0 mm  3.6 °C 13.9 °C
Gallio (VI) 21/03/19 12.05 8.1 °C 43 % -3.8 °C 1034.0 hPa 1.6 Km/h ESE 0.0 mm  -3.2 °C 8.1 °C
Gardolo (TN) 21/03/19 12.14 13.2 °C 36 % -1.6 °C 1032.9 hPa 3.2 Km/h NNE 0.0 mm  -0.2 °C 14.1 °C
Genova (GE) 21/03/19 12.18 14.3 °C 35 % -0.9 °C 1031.8 hPa 20.9 Km/h NW 0.0 mm  9.2 °C 14.3 °C
Genova Oregina (GE) 21/03/19 12.18 12.9 °C 40 % -0.4 °C 1029.1 hPa 24.1 Km/h NW 0.0 mm  7.3 °C 12.9 °C
Gorizia (GO) 21/03/19 12.15 13.8 °C 33 % -2.3 °C 1032.0 hPa 7.9 Km/h NNE 0.0 mm  5.3 °C 13.9 °C
Grancare di Villabalzana (VI) 21/03/19 12.09 12.6 °C 36 % -2.1 °C 1016.1 hPa 2.9 Km/h E 0.0 mm  3.5 °C 12.9 °C
Iglesias (CI) 21/03/19 12.16 16.1 °C 56 % 7.3 °C 1024.7 hPa 16.2 Km/h NNE 0.0 mm  11.2 °C 17.2 °C
Illasi ARPAV (VR) 21/03/19 12.00 14.0 °C 33 % -2.0 °C  hPa 9.7 Km/h E 0.0 mm  3.5 °C 14.0 °C
Isera loc. Reviano (TN) 21/03/19 12.18 12.2 °C 36 % -2.5 °C 1030.0 hPa 6.5 Km/h N 0.0 mm  1.1 °C 12.2 °C
Isola d'Elba Marina di Campo (LI) 21/03/19 11.45 14.1 °C 54 % 4.9 °C 1085.5 hPa 11.3 Km/h NNW 0.0 mm  8.8 °C 14.7 °C
Lavis (TN) 21/03/19 12.15 14.4 °C 34 % -1.1 °C 1032.6 hPa 4.8 Km/h N 0.0 mm  0.1 °C 14.6 °C
Laxolo (BG) 21/03/19 12.16 11.9 °C 42 % -0.6 °C 1027.2 hPa 0.0 Km/h W 0.0 mm  -1.3 °C 11.9 °C
Legnago (VR) 13/07/19 00.35 5.7 °C 55 % -2.7 °C 1018.1 hPa 0.0 Km/h --- 0.0 mm  5.6 °C 5.7 °C
Lendinara2 (RO) 21/03/19 12.09 13.8 °C 42 % 1.1 °C 1032.9 hPa 4.8 Km/h NE 0.0 mm  1.8 °C 13.8 °C
Lesmo (MB) 21/03/19 12.10 12.9 °C 40 % -0.4 °C 1033.5 hPa 8.0 Km/h WSW 0.0 mm  -0.8 °C 13.1 °C
Limbiate (MB) 21/03/19 12.05 16.0 °C 26 % -3.5 °C 1024.1 hPa 6.1 Km/h W 0.0 mm  0.8 °C 16.0 °C
Loano (SV) 21/03/19 12.15 16.6 °C 29 % -1.5 °C 1028.0 hPa 2.0 Km/h NNE 0.4 mm  11.5 °C 16.6 °C
Lovere (BG) 21/03/19 12.16 12.6 °C 53 % 0.0 °C 1031.5 hPa 1.4 Km/h W 0.0 mm  3.0 °C 12.6 °C
Lugagnano (VR) 21/03/19 12.14 14.7 °C 39 % 0.6 °C 1031.7 hPa 4.8 Km/h WSW 0.0 mm  3.7 °C 14.7 °C
Lugo di Vicenza (VI) 17/03/19 00.12 9.7 °C 68 % 4.1 °C 1014.1 hPa 4.8 Km/h NNW 0.0 mm  9.6 °C 9.7 °C
Lusiana Sciessere (VI) 21/03/19 12.14 8.9 °C 44 % -2.7 °C 1031.8 hPa 0.0 Km/h E 0.0 mm  1.8 °C 9.0 °C
Malga Malera (VR) 21/03/19 12.20 5.1 °C  %  °C  hPa 0.0 Km/h 0.0 mm   °C  °C
Malga Nardis (TN) 21/03/19 12.15 7.2 °C 41 % -5.2 °C 1029.6 hPa 2.4 Km/h WSW 0.2 mm  -3.6 °C 7.2 °C
Malnate San Salvatore (VA) 21/03/19 12.15 12.1 °C 43 % -0.1 °C 1034.1 hPa 3.2 Km/h SW 0.0 mm  -0.7 °C 12.3 °C
Marano di Valpolicella ARPAV (VR) 21/03/19 12.00 12.4 °C 32 % -3.8 °C  hPa 5.4 Km/h SW 0.0 mm  4.1 °C 12.4 °C
Marano Vicentino2 (VI) 21/03/19 12.15 0.0 °C 0 % 0.0 °C 1031.2 hPa 0.0 Km/h N 0.0 mm  2.4 °C 12.3 °C
Margone (TN) 21/03/19 12.10 9.1 °C 39 % -4.2 °C 1035.2 hPa 8.3 Km/h SSW 0.0 mm  -0.7 °C 9.2 °C
Marina di Montemarciano (AN) 21/03/19 12.15 11.9 °C 75 % 7.6 °C 1032.0 hPa 6.4 Km/h NW 0.0 mm  4.4 °C 12.1 °C
Marineo (PA) 21/03/19 12.18 15.6 °C 68 % 9.7 °C 1018.3 hPa 8.0 Km/h SE 0.4 mm  9.3 °C 16.1 °C
Marostica Valle San Floriano (VI) 21/03/19 12.14 14.2 °C 37 % -0.3 °C 1033.6 hPa 8.0 Km/h S 0.0 mm  3.1 °C 14.2 °C
Marta (VT) 21/03/19 12.15 13.9 °C 61 % 6.5 °C 1024.1 hPa 19.8 Km/h NNW 0.0 mm  7.2 °C 13.9 °C
Martignano (TN) 21/03/19 12.14 10.4 °C 39 % -3.0 °C 1031.1 hPa 4.8 Km/h W 0.0 mm  1.9 °C 10.4 °C
Masiera di Bagnacavallo (RA) 21/03/19 12.15 14.2 °C 48 % 3.3 °C 1032.1 hPa 7.4 Km/h ENE 0.0 mm  1.4 °C 14.3 °C
Massignano (AP) 21/03/19 12.18 15.3 °C 54 % 6.0 °C 1030.1 hPa 4.3 Km/h ESE 0.0 mm  6.5 °C 15.6 °C
Massone di Arco (TN) 21/03/19 12.15 13.4 °C 39 % -0.3 °C 1030.7 hPa 9.0 Km/h S 0.0 mm  3.0 °C 13.4 °C
Merlara (PD) 21/03/19 12.10 13.5 °C 38 % -0.5 °C 1032.1 hPa 9.7 Km/h ESE 0.0 mm  3.4 °C 13.5 °C
Mezzana Bigli (PV) 21/03/19 12.15 14.0 °C 38 % -0.1 °C 1032.2 hPa 4.6 Km/h NE 0.0 mm  1.1 °C 14.1 °C
Migliarino (FE) 21/03/19 12.19 16.4 °C 32 % -0.4 °C 1033.1 hPa 5.0 Km/h N 0.0 mm  2.8 °C 16.4 °C
Miglionico (MT) 21/03/19 12.10 12.1 °C 74 % 7.6 °C 1024.4 hPa 27.4 Km/h N 0.0 mm  4.1 °C 12.1 °C
Miola di Piné (TN) 21/03/19 12.15 8.8 °C 44 % -2.8 °C 1033.7 hPa 4.8 Km/h WNW 0.0 mm  -2.4 °C 8.8 °C
Mirabella Imbaccari (CT) 21/03/19 12.16 11.6 °C 87 % 9.5 °C 1022.4 hPa 24.1 Km/h ENE 0.4 mm  9.4 °C 11.6 °C
Mizzole (VR) 21/03/19 12.15 16.0 °C 33 % -0.3 °C 1032.6 hPa 4.3 Km/h SSW 0.0 mm  4.7 °C 16.1 °C
Monasterolo Torinese (TO) 21/03/19 12.10 10.8 °C 41 % -1.9 °C 1028.9 hPa 3.2 Km/h ESE 0.0 mm  3.5 °C 11.1 °C
Moneglia loc. Casale (GE) 21/03/19 12.15 14.4 °C 35 % -0.9 °C 1029.6 hPa 3.2 Km/h N 0.0 mm  7.7 °C 14.4 °C
Moneglia loc. La Secca (GE) 21/03/19 12.16 17.3 °C 32 % 0.4 °C 1027.4 hPa 6.4 Km/h NNW 0.0 mm  10.7 °C 17.3 °C
Mongrando San Michele (BI) 21/03/19 12.10 12.6 °C 100 % 12.6 °C 1032.7 hPa 8.0 Km/h ESE 0.0 mm  1.7 °C 12.6 °C
Monselice (PD) 21/03/19 12.20 14.8 °C 30 % -2.7 °C 1026.3 hPa 11.2 Km/h ESE 0.0 mm  6.8 °C 15.0 °C
Montagna in Valtellina (SO) 21/03/19 12.18 13.4 °C 39 % -0.3 °C 1033.0 hPa 0.2 Km/h SW 0.0 mm  1.6 °C 13.6 °C
Monte Baldo Nord ARPAV (VR) 21/03/19 12.00 1.7 °C 42 % -9.8 °C 1031.1 hPa 19.1 Km/h E 0.0 mm  -4.0 °C 1.7 °C
Monte Tomba ARPAV (VR) 21/03/19 12.00 2.9 °C 49 % -6.8 °C  hPa 7.9 Km/h S 0.0 mm  -3.4 °C 2.9 °C
Montebello Vicentino loc. Selva (VI) 21/03/19 12.19 13.5 °C 26 % -5.7 °C 1032.8 hPa 7.4 Km/h ENE 0.0 mm  7.0 °C 13.6 °C
Montecchio Maggiore Sant'Urbano (VI) 20/03/19 22.37 7.9 °C 33 % -7.5 °C 1040.9 hPa 7.1 Km/h N 0.0 mm  4.5 °C 10.4 °C
Monteforte d'Alpone2 (VR) 21/03/19 12.20 13.7 °C 34 % -1.9 °C 1031.0 hPa 17.7 Km/h E 0.0 mm  3.4 °C 13.7 °C
Montelabbate (PU) 21/03/19 12.09 12.2 °C 58 % 4.1 °C 1026.6 hPa 9.7 Km/h N 0.0 mm  6.1 °C 12.4 °C
Montespertoli (FI) 20/03/19 14.46 12.0 °C 24 % -7.9 °C 1027.4 hPa 14.0 Km/h N 0.0 mm  9.0 °C 12.5 °C
Montopoli in val d'Arno Loc. Capanne (PI) 21/03/19 12.10 15.9 °C 38 % 1.7 °C 1028.0 hPa 7.6 Km/h NE 0.0 mm  9.1 °C 15.9 °C
Montorio (VR) 21/03/19 12.09 14.8 °C 32 % -1.7 °C 1034.4 hPa 1.8 Km/h SSE 0.0 mm  4.9 °C 15.2 °C
Montorso Vicentino (VI) 21/03/19 12.19 12.3 °C 39 % -1.3 °C 1032.6 hPa 9.7 Km/h NNE 0.0 mm  4.4 °C 12.7 °C
Morbegno (SO) 21/03/19 12.19 13.4 °C 40 % 0.1 °C 1029.3 hPa 11.5 Km/h WNW 0.0 mm  1.5 °C 13.8 °C
Musigliano (PI) 21/03/19 12.12 19.2 °C 25 % -1.3 °C 1026.8 hPa 14.0 Km/h SE 0.0 mm  15.1 °C 19.2 °C
Muzzano (BI) 21/03/19 12.10 10.7 °C 44 % -1.1 °C 1032.0 hPa 6.4 Km/h SE 0.0 mm  3.2 °C 10.7 °C
Nichelino (TO) 21/03/19 11.30 12.3 °C 39 % -1.2 °C 1035.0 hPa 3.2 Km/h SW 0.0 mm  4.3 °C 12.4 °C
Novara (NO) 21/03/19 12.10 13.3 °C 39 % -0.4 °C 1032.6 hPa 0.0 Km/h SW 0.0 mm  0.8 °C 13.4 °C
Oppeano (VR) 17/03/19 20.25 13.4 °C 74 % 8.8 °C 1007.1 hPa 0.0 Km/h NE 0.0 mm  5.7 °C 18.8 °C
Oristano (OR) 21/03/19 12.18 18.3 °C 50 % 7.7 °C 1020.3 hPa 8.2 Km/h N 0.0 mm  10.5 °C 18.4 °C
Ortonovo (SP) 21/03/19 12.15 18.1 °C 31 % 0.7 °C 1026.6 hPa 13.3 Km/h SW 0.0 mm  7.7 °C 18.3 °C
Orvieto (TR) 21/03/19 12.16 16.9 °C 43 % 4.2 °C 1023.7 hPa 2.2 Km/h NNW 0.0 mm  5.9 °C 17.3 °C
Ovaro loc. Liariis (UD) 21/03/19 12.05 13.2 °C 35 % -1.9 °C 1035.0 hPa 3.2 Km/h SE 0.0 mm  -1.8 °C 13.2 °C
Pace del Mela (ME) 21/03/19 12.16 18.6 °C 45 % 6.4 °C 1015.0 hPa 8.2 Km/h NW 0.3 mm  11.8 °C 18.6 °C
Padergnone (TN) 21/03/19 12.00 15.3 °C 34 % -0.5 °C 1032.8 hPa 2.8 Km/h N 0.0 mm  0.8 °C 15.3 °C
Parella (TO) 21/03/19 12.10 12.1 °C 43 % -0.1 °C 1031.4 hPa 4.8 Km/h ESE 0.0 mm  3.8 °C 12.2 °C
Pastrengo (VR) 21/03/19 12.09 12.8 °C 32 % -3.5 °C 1034.8 hPa 3.7 Km/h SW 0.0 mm  4.4 °C 12.8 °C
Pastrengo Corné (VR) 21/03/19 12.19 12.2 °C 40 % -1.1 °C 1031.8 hPa 7.9 Km/h W 0.0 mm  3.7 °C 12.1 °C
Pecetto Torinese (TO) 21/03/19 12.09 12.2 °C 44 % 0.3 °C 1033.1 hPa 1.6 Km/h SW 0.0 mm  4.1 °C 12.4 °C
Pedemonte (VR) 21/03/19 12.10 15.3 °C 36 % 0.3 °C 1032.4 hPa 3.0 Km/h W 0.0 mm  2.3 °C 15.3 °C
Perarolo di Arcugnano (VI) 21/03/19 12.16 13.8 °C 43 % 1.4 °C 1001.8 hPa 6.8 Km/h NNE 0.0 mm  2.4 °C 13.8 °C
Perugia San Mariano (PG) 21/03/19 12.14 15.9 °C 43 % 3.3 °C 1027.5 hPa 14.1 Km/h WNW 0.0 mm  7.0 °C 15.8 °C
Pescantina Are (VR) 21/03/19 06.37 3.8 °C 75 % -0.2 °C 1032.7 hPa 1.6 Km/h NW 0.0 mm  3.1 °C 4.8 °C
Peschiera del Garda (VR) 21/03/19 12.10 12.3 °C 44 % 0.4 °C 1033.2 hPa 11.3 Km/h NNE 0.0 mm  2.7 °C 12.3 °C
Pian di Castagné (VR) 21/03/19 12.05 12.8 °C 35 % -2.3 °C 1032.7 hPa 1.6 Km/h ESE 0.0 mm  5.9 °C 12.8 °C
Pian di Castagné2 (VR) 21/03/19 12.09 12.4 °C 40 % -0.8 °C 1031.7 hPa 18.0 Km/h SW 0.0 mm  4.7 °C 12.8 °C
Pila Valsesia (VC) 21/03/19 12.10 11.7 °C 42 % -0.8 °C 1029.9 hPa 3.2 Km/h ESE 0.0 mm  -1.3 °C 11.9 °C
Piovà Massaia (AT) 21/03/19 12.18 12.4 °C 43 % 0.2 °C 1031.8 hPa 9.7 Km/h NE 0.0 mm  5.2 °C 12.4 °C
Piraino contr. Fiumara (ME) 21/03/19 12.15 19.8 °C 47 % 8.2 °C 1018.9 hPa 5.0 Km/h NNW 1.0 mm  11.6 °C 19.9 °C
Pisa zona I Passi (PI) 21/03/19 12.19 17.7 °C 28 % -1.0 °C 1028.3 hPa 20.5 Km/h NE 0.0 mm  4.4 °C 17.7 °C
Pojana Maggiore Cagnano (VI) 21/03/19 12.13 15.5 °C 25 % -4.4 °C 1031.0 hPa 15.0 Km/h 0.0 mm  3.0 °C 15.5 °C
Pomezia (RM) 21/03/19 12.18 18.9 °C 42 % 5.7 °C 1022.7 hPa 6.4 Km/h NW 0.0 mm  7.2 °C 18.9 °C
Ponte San Nicolò (PD) 21/03/19 12.08 14.3 °C 37 % -0.2 °C 1032.3 hPa 9.7 Km/h E 0.0 mm  5.1 °C 14.3 °C
Ponte San Pellegrino (MO) 21/03/19 12.17 12.2 °C 31 % -4.4 °C 1035.6 hPa 0.0 Km/h NNE 0.0 mm  2.8 °C 12.3 °C
Pordenone (PN) 21/03/19 12.15 15.6 °C 28 % -2.9 °C 1032.5 hPa 4.8 Km/h NE 0.0 mm  3.7 °C 15.6 °C
Posina loc. Contrà Boni (VI) 21/03/19 12.14 11.3 °C 41 % -1.5 °C 1035.2 hPa 8.0 Km/h NW 0.0 mm  0.3 °C 11.3 °C
Pozzolo Formigaro (AL) 21/03/19 12.14 13.6 °C 48 % 2.8 °C 1033.1 hPa 7.6 Km/h NNW 0.0 mm  0.8 °C 13.8 °C
Pray (BI) 21/03/19 12.15 12.0 °C 40 % -1.2 °C 1032.6 hPa 5.0 Km/h SW 0.0 mm  -1.4 °C 12.0 °C
Randazzo (CT) 21/03/19 12.10 11.0 °C 77 % 7.1 °C 1021.8 hPa 17.7 Km/h NNE 0.0 mm  7.8 °C 13.9 °C
Reggello (FI) 21/03/19 12.15 14.2 °C 41 % 1.1 °C 1031.1 hPa 22.5 Km/h NO 0.0 mm  3.2 °C 14.2 °C
Riccione (RN) 21/03/19 12.14 11.3 °C 66 % 5.2 °C 1032.0 hPa 12.9 Km/h NW 0.0 mm  5.3 °C 11.4 °C
Rifugio Bocca di Selva (VR) 21/03/19 12.19 4.9 °C 51 % -4.3 °C 1034.8 hPa 12.9 Km/h SSW 0.0 mm  -2.7 °C 5.0 °C
Rifugio Castelberto (VR) 21/03/19 12.30 4.0 °C 50 % -5.5 °C 1034.9 hPa 6.4 Km/h E 0.0 mm  -4.7 °C 4.1 °C
Rifugio Fiori del Baldo (VR) 21/03/19 12.05 0.6 °C 59 % -5.4 °C 1032.2 hPa 21.1 Km/h SE 0.0 mm  -4.3 °C 0.6 °C
Rifugio Primaneve (VR) 21/03/19 12.12 3.0 °C 55 % -5.2 °C 1035.6 hPa 3.0 Km/h ESE 0.0 mm  -3.3 °C 3.0 °C
Rimini (RN) 21/03/19 12.10 12.1 °C 55 % 3.3 °C 1032.7 hPa 1.6 Km/h NNW 0.0 mm  4.9 °C 12.8 °C
Rimini Zona Palas (RN) 21/03/19 12.14 11.4 °C 55 % 2.7 °C 1032.9 hPa 14.5 Km/h NNE 0.0 mm  4.2 °C 11.5 °C
Rivalta sul Mincio (MN) 21/03/19 12.12 14.9 °C 39 % 1.0 °C 1033.3 hPa 7.4 Km/h E 0.0 mm  1.1 °C 14.9 °C
Rocca Priora (RM) 21/03/19 11.40 15.2 °C 44 % 3.0 °C 1026.5 hPa 14.5 Km/h NE 0.0 mm  5.2 °C 15.5 °C
Romano d'Ezzelino Fellette (VI) 21/03/19 12.18 10.3 °C 16 % -14.4 °C 1020.0 hPa 5.9 Km/h NNE 0.0 mm  4.4 °C 16.4 °C
Ronciglione Centro (VT) 21/03/19 12.15 17.4 °C 33 % 0.9 °C 1023.0 hPa 6.5 Km/h NNW 0.0 mm  7.1 °C 17.4 °C
Ronciglione - Ponte Cuzzoli (VT) 21/03/19 12.19 18.4 °C 39 % 4.2 °C 1025.2 hPa 3.2 Km/h NNW 0.0 mm  6.8 °C 18.1 °C
Rosolina (RO) 21/03/19 12.05 13.1 °C 51 % 3.2 °C 1033.3 hPa 11.3 Km/h NE 0.0 mm  7.7 °C 13.1 °C
Rossano Veneto (VI) 21/03/19 12.18 15.3 °C 32 % -1.3 °C 1032.1 hPa 0.0 Km/h E 0.0 mm  3.2 °C 15.3 °C
Roverchiara ARPAV (VR) 21/03/19 12.00 13.9 °C 33 % -2.1 °C  hPa 11.2 Km/h ENE 0.0 mm  3.1 °C 13.9 °C
S. Donà di Piave (VE) 21/03/19 11.44 14.5 °C 35 % -0.8 °C 1031.4 hPa 6.4 Km/h ENE 0.0 mm  3.1 °C 14.6 °C
S. Giovanni Ilarione2 (VR) 21/03/19 12.15 13.8 °C 34 % -1.8 °C 1032.3 hPa 6.4 Km/h NE 0.0 mm  2.1 °C 14.1 °C
S. Giovanni Lupatoto (VR) 21/03/19 12.10 16.0 °C 36 % 0.9 °C 1033.0 hPa 3.2 Km/h SE 0.0 mm  4.6 °C 16.0 °C
S. Giovanni Rotondo (FG) 21/03/19 12.18 9.5 °C 82 % 6.6 °C 1028.5 hPa 37.0 Km/h N 0.0 mm  6.2 °C 10.3 °C
S. Lorenzo di Vittorio Veneto (TV) 21/03/19 12.15 11.8 °C 38 % -2.1 °C 1033.3 hPa 6.4 Km/h SSE 0.0 mm  5.4 °C 11.9 °C
S. Lorenzo Nuovo (VT) 21/03/19 12.16 13.8 °C 46 % 2.2 °C 1024.1 hPa 14.0 Km/h NNE 0.0 mm  4.3 °C 13.8 °C
S. Maria di Zevio Loc. 3 Ponti (VR) 21/03/19 12.14 13.9 °C 37 % -0.6 °C 1034.2 hPa 8.0 Km/h ESE 0.0 mm  4.4 °C 13.9 °C
S. Maria Maddalena (RO) 21/03/19 12.11 13.3 °C 47 % 2.2 °C 1031.8 hPa 8.0 Km/h NNW 0.0 mm  3.3 °C 13.9 °C
S. Martino Lupari (PD) 21/03/19 12.10 14.7 °C 43 % 2.2 °C 812.5 hPa 0.0 Km/h NNE 0.0 mm  3.2 °C 14.8 °C
S. Rocco di Villabalzana (VI) 21/03/19 12.17 13.4 °C 37 % -1.1 °C 1032.1 hPa 11.3 Km/h ENE 0.0 mm  4.0 °C 13.6 °C
Sacile (PN) 21/03/19 12.05 14.7 °C 23 % -6.2 °C 1032.7 hPa 3.2 Km/h ENE 0.0 mm  0.9 °C 14.7 °C
Sacile2 (PN) 21/03/19 12.15 14.8 °C 42 % 2.0 °C 1032.6 hPa 5.7 Km/h E 0.0 mm  -0.4 °C 14.9 °C
Salcedo (VI) 21/03/19 12.18 11.4 °C 49 % 1.1 °C 1030.1 hPa 2.2 Km/h E 0.0 mm  3.9 °C 11.6 °C
San Benedetto del Tronto (AP) 21/03/19 12.00 13.0 °C 57 % 4.7 °C 1028.5 hPa 13.0 Km/h ENE 0.0 mm  7.9 °C 14.3 °C
San Bortolo ARPAV (VR) 21/03/19 12.00 7.6 °C  %  °C  hPa 7.2 Km/h E 0.0 mm  0.6 °C 7.6 °C
San Cataldo (CL) 21/03/19 12.18 12.0 °C 68 % 6.3 °C 1015.1 hPa 36.5 Km/h ESE 0.0 mm  8.1 °C 12.2 °C
San Giovanni la Punta Trappeto (CT) 21/03/19 12.15 13.4 °C 80 % 10.1 °C 1022.2 hPa 6.4 Km/h NE 0.8 mm  11.1 °C 14.0 °C
San Nazario (VI) 21/03/19 12.18 5.2 °C 76 % 1.3 °C 1028.1 hPa 2.5 Km/h N 0.0 mm  4.9 °C 6.2 °C
San Pietro di Rosà (VI) 21/03/19 12.18 14.5 °C 31 % -2.4 °C 1035.1 hPa 3.3 Km/h NE 0.0 mm  4.5 °C 14.6 °C
San Pietro in Cariano (VR) 21/03/19 12.09 13.1 °C 28 % -5.0 °C 1032.4 hPa 6.1 Km/h N 0.0 mm  3.7 °C 13.3 °C
San Salvo3 (CH) 21/03/19 12.19 13.2 °C 59 % 5.3 °C 1027.1 hPa 25.7 Km/h NW 0.0 mm  7.2 °C 13.6 °C
San Vito di Negrar (VR) 21/03/19 12.10 14.4 °C 33 % -1.7 °C 1033.2 hPa 3.2 Km/h SE 0.0 mm  3.7 °C 14.6 °C
San Zeno di Mont. Loc. Castello (VR) 21/03/19 12.14 7.3 °C 45 % -3.9 °C 1032.5 hPa 1.4 Km/h NNE 0.0 mm  1.8 °C 7.4 °C
Santa Maria di Negrar (VR) 21/03/19 12.09 14.7 °C 42 % 1.9 °C 1033.1 hPa 1.1 Km/h WSW 0.0 mm  3.6 °C 14.8 °C
Sarcedo (VI) 21/03/19 12.14 14.2 °C 32 % -2.3 °C 1031.2 hPa 4.7 Km/h SSW 0.0 mm  3.7 °C 14.3 °C
Schio (VI) 21/03/19 11.55 15.2 °C 31 % -1.8 °C 1033.8 hPa 3.2 Km/h SSW 0.0 mm  3.4 °C 15.3 °C
Schio Monte Magré (VI) 21/03/19 12.19 12.8 °C 40 % -0.5 °C 0.0 hPa 3.2 Km/h E 0.0 mm  2.6 °C 12.8 °C
Selva di Progno (VR) 21/03/19 12.05 -573.3 °C 255 % -73.3 °C 1032.1 hPa 0.0 Km/h N 0.0 mm  -573.3 °C 10.4 °C
Seremange Erzange (Moselle) 21/03/19 12.18 13.1 °C 42 % 0.5 °C 1034.4 hPa 0.0 Km/h ENE 0.0 mm  0.6 °C 12.6 °C
Sinnai (CA) 21/03/19 12.00 14.7 °C 59 % 6.8 °C 1020.3 hPa 9.7 Km/h ENE 1.2 mm  11.8 °C 15.3 °C
Soave Borgo Bassano (VR) 21/03/19 12.15 14.8 °C 32 % -1.7 °C 1032.7 hPa 8.0 Km/h NE 0.0 mm  4.6 °C 14.8 °C
Sona Loc. La Colombara (VR) 21/03/19 12.00 13.0 °C 42 % 0.4 °C 1029.6 hPa 6.0 Km/h W 0.0 mm  2.0 °C 13.0 °C
Sorgà ARPAV (VR) 21/03/19 12.00 14.5 °C 29 % -3.3 °C  hPa 15.1 Km/h NE 0.0 mm  1.7 °C 14.5 °C
Soriso (NO) 21/03/19 12.10 12.3 °C 46 % 1.0 °C 1033.4 hPa 4.8 Km/h NNE 0.0 mm  2.7 °C 12.6 °C
Spoltore (PE) 21/03/19 12.08 14.1 °C 55 % 5.2 °C 1031.0 hPa 8.7 Km/h SE 0.0 mm  6.4 °C 14.1 °C
Staranzano (GO) 21/03/19 12.00 14.0 °C 35 % -1.2 °C 1032.4 hPa 17.7 Km/h ESE 0.0 mm  8.0 °C 14.0 °C
Stiore - Monteveglio (BO) 21/03/19 12.18 11.2 °C 49 % 0.9 °C 1030.0 hPa 4.8 Km/h WNW 0.0 mm  0.1 °C 11.2 °C
Taio Mollaro (TN) 21/03/19 12.18 13.1 °C 35 % -2.0 °C 1031.9 hPa 1.5 Km/h W 0.0 mm  -1.9 °C 13.1 °C
Taranto (TA) 21/03/19 12.18 17.3 °C 60 % 9.5 °C 1021.3 hPa 13.5 Km/h ENE 0.0 mm  12.1 °C 17.6 °C
Todi (PG) 21/03/19 12.15 15.3 °C 47 % 4.1 °C 1026.1 hPa 3.0 Km/h NW 0.0 mm  4.4 °C 15.3 °C
Tombolo (PD) 21/03/19 12.19 14.1 °C 38 % -0.1 °C 1033.1 hPa 2.6 Km/h ESE 0.0 mm  3.2 °C 14.1 °C
Torino Regio Parco (TO) 21/03/19 12.19 14.6 °C 33 % -1.6 °C 1033.8 hPa 1.9 Km/h SE 0.0 mm  3.9 °C 14.7 °C
Torremaggiore (FG) 21/03/19 12.15 12.8 °C 68 % 7.1 °C 1028.2 hPa 15.9 Km/h N 0.0 mm  6.8 °C 12.8 °C
Torri (FI) 21/03/19 12.00 13.5 °C 48 % 2.7 °C 1027.4 hPa 0.0 Km/h --- 0.0 mm  6.2 °C 13.6 °C
Torrita di Siena (SI) 19/03/19 18.40 7.1 °C 69 % 1.7 °C 1022.5 hPa 9.7 Km/h NNW 0.8 mm  5.7 °C 11.5 °C
Trambileno (TN) 21/03/19 12.14 11.0 °C 43 % -1.1 °C 1031.4 hPa 0.0 Km/h NNE 0.0 mm  -2.0 °C 11.0 °C
Trento (TN) 21/03/19 12.14 13.1 °C 37 % -1.3 °C 1031.3 hPa 4.8 Km/h NNE 0.0 mm  3.3 °C 13.1 °C
Treviso (TV) 21/03/19 12.14 14.6 °C 28 % -3.7 °C 1031.6 hPa 7.0 Km/h SE 0.0 mm  3.8 °C 14.8 °C
Tuscania (VT) 21/03/19 09.30 12.2 °C 53 % 2.9 °C 1026.1 hPa 5.2 Km/h NNE 0.0 mm  7.4 °C 12.2 °C
Val Lastaro (VI) 21/03/19 12.09 6.9 °C 50 % -2.8 °C 1035.0 hPa 1.7 Km/h SSE 0.0 mm  -7.1 °C 6.9 °C
Valdobbiadene San Pietro di Barbozza (TV) 21/03/19 12.10 11.4 °C 40 % -1.8 °C 1031.7 hPa 9.7 Km/h SSE 0.0 mm  5.2 °C 11.8 °C
Valentano (VT) 21/03/19 12.18 14.2 °C 48 % 3.3 °C 1025.0 hPa 0.0 Km/h NE 0.0 mm  4.6 °C 14.2 °C
Valenza (AL) 21/03/19 12.19 11.4 °C 42 % -1.0 °C 1032.7 hPa 4.8 Km/h NNE 0.0 mm  2.7 °C 11.4 °C
Valli del Pasubio loc. Gisbenti (VI) 21/03/19 12.15 13.1 °C 38 % -0.9 °C 987.0 hPa 3.4 Km/h ENE 0.0 mm  -1.5 °C 13.1 °C
Varese Ligure (SP) 21/03/19 12.16 11.9 °C 33 % -3.9 °C 1023.6 hPa 18.0 Km/h N 0.0 mm  5.9 °C 11.9 °C
Vasto (CH) 21/03/19 12.16 13.9 °C 10 % -17.2 °C 1030.2 hPa 17.3 Km/h N 0.0 mm  8.9 °C 14.1 °C
Vattaro fraz. Pian dei Pradi (TN) 21/03/19 12.19 9.2 °C 48 % -1.2 °C 1033.7 hPa 4.8 Km/h NNE 0.0 mm  -1.1 °C 9.2 °C
Vazzo Roveré Veronese (VR) 21/03/19 12.19 8.3 °C 46 % -2.7 °C 1030.7 hPa 6.4 Km/h SW 0.0 mm  0.1 °C 9.5 °C
Verona Bgo Venezia (iz3sly) (VR) 21/03/19 12.11 15.3 °C 33 % -0.8 °C 1031.4 hPa 4.8 Km/h WSW 0.0 mm  3.2 °C 15.4 °C
Verona Cadidavid2 (VR) 21/03/19 12.10 14.7 °C 37 % 0.2 °C 1032.8 hPa 4.7 Km/h E 0.0 mm  1.0 °C 14.7 °C
Vicenza Campedello (VI) 21/03/19 12.29 15.2 °C 37 % 0.6 °C 1033.1 hPa 0.0 Km/h SE 0.0 mm  2.3 °C 15.2 °C
Vicenza Moracchino (VI) 21/03/19 12.19 13.8 °C 38 % -0.2 °C 1031.6 hPa 11.3 Km/h ENE 0.0 mm  2.6 °C 14.1 °C
Vicenza Pecori Giraldi (VI) 21/03/19 12.05 14.6 °C 33 % -1.5 °C 1042.9 hPa 4.3 Km/h NNE 0.0 mm  3.4 °C 15.5 °C
Vicenza S. Lazzaro (VI) 21/03/19 12.14 14.0 °C 34 % -1.6 °C 1031.8 hPa 5.0 Km/h ENE 0.0 mm  3.0 °C 14.0 °C
Vicenza San Gaetano (VI) 21/03/19 12.16 15.2 °C 34 % -0.6 °C 1032.4 hPa 0.1 Km/h NNW 0.0 mm  3.2 °C 15.2 °C
Vidor (TV) 21/03/19 12.15 14.3 °C 37 % -0.2 °C 1030.7 hPa 4.6 Km/h SSE 0.0 mm  0.5 °C 14.7 °C
Vieste (FG) 21/03/19 12.19 15.2 °C 66 % 8.9 °C 1027.7 hPa 24.1 Km/h NNW 0.0 mm  11.2 °C 15.3 °C
Vigardolo (VI) 21/03/19 12.15 13.8 °C 30 % -3.5 °C 1030.7 hPa 0.6 Km/h N 0.0 mm  4.0 °C 14.1 °C
Vigasio (VR) 21/03/19 12.00 16.0 °C 32 % -0.7 °C 1031.0 hPa 4.8 Km/h ESE 0.0 mm  3.2 °C 16.0 °C
Villabartolomea (VR) 21/03/19 12.14 13.4 °C 40 % 0.1 °C 1031.8 hPa 4.8 Km/h E 0.0 mm  3.8 °C 13.6 °C
Villafranca di Verona ARPAV (VR) 21/03/19 12.00 13.6 °C 27 % -5.0 °C  hPa 4.7 Km/h NW 0.0 mm  2.4 °C 13.6 °C
Villar Perosa (TO) 21/03/19 07.45 0.4 °C 78 % -2.9 °C 1034.3 hPa 0.0 Km/h --- 0.0 mm  -0.2 °C 2.4 °C
Viozene Toria (CN) 21/03/19 12.15 10.4 °C 21 % -11.0 °C 1022.0 hPa 4.0 Km/h SSE 0.0 mm  1.5 °C 10.6 °C
Viterbo Santa Barbara (VT) 21/03/19 12.19 16.4 °C 41 % 3.1 °C 1025.1 hPa 14.8 Km/h N 0.0 mm  5.6 °C 16.6 °C
Viterbo Strada Bagni (VT) 21/03/19 12.14 19.0 °C 40 % 5.1 °C 1024.5 hPa 0.0 Km/h ESE 0.0 mm  6.0 °C 19.0 °C
Vitorchiano Pallone (VT) 21/03/19 12.10 15.7 °C 45 % 3.8 °C 1024.6 hPa 9.7 Km/h NE 0.0 mm  4.9 °C 15.7 °C
Vittorio Veneto Parco Fenderl (TV) 21/03/19 12.00 14.7 °C 34 % -1.0 °C 1032.4 hPa 1.6 Km/h N 0.0 mm  3.5 °C 14.8 °C
Volpago del Montello (TV) 21/03/19 12.15 13.1 °C 38 % -0.9 °C 1032.2 hPa 3.2 Km/h NE 0.0 mm  2.1 °C 13.2 °C
 
(*) = Precipitazioni nelle ultime 24h.
Dati non aggiornati nell'ultima ora.
   
In collaborazione con:
 
Top! Top!